Time;durP1;ratioP1;P1;durP2;ratioP2;P2;SDS_P1;SDS_P2;PMS_P1;PMS_P2;Temp;Humidity;BMP_temperature;BMP_pressure;BME280_temperature;BME280_humidity;BME280_pressure;Samples;Min_cycle;Max_cycle;Signal;HPM_P1;HPM_P2
2022/08/01 00:02:03;;;;;;;1.43;1.23;;;;;;;22.12;72.79;100027.88;4980267;28;20224;-74
2022/08/01 00:04:28;;;;;;;1.47;1.30;;;;;;;22.09;73.08;100022.94;4975258;28;20215;-73
2022/08/01 00:06:53;;;;;;;1.80;1.50;;;;;;;21.97;73.71;100022.44;4975280;28;20208;-73
2022/08/01 00:09:19;;;;;;;1.73;1.57;;;;;;;21.96;73.65;100033.91;4974785;28;20519;-73
2022/08/01 00:11:44;;;;;;;1.90;1.50;;;;;;;21.65;76.43;100029.22;4983081;28;20731;-73
2022/08/01 00:14:10;;;;;;;7.83;1.63;;;;;;;21.69;76.07;100025.28;4983233;28;20279;-73
2022/08/01 00:16:36;;;;;;;1.83;1.53;;;;;;;21.64;76.15;100024.16;4973448;28;20224;-73
2022/08/01 00:19:01;;;;;;;2.43;2.00;;;;;;;21.57;77.48;100034.41;4975175;28;20186;-73
2022/08/01 00:21:27;;;;;;;1.80;1.33;;;;;;;21.53;77.47;100033.06;4967440;28;20622;-73
2022/08/01 00:23:52;;;;;;;3.00;1.70;;;;;;;21.43;78.50;100035.78;4979388;28;20545;-73
2022/08/01 00:26:17;;;;;;;2.43;1.50;;;;;;;21.34;79.16;100037.53;4974959;28;20184;-73
2022/08/01 00:28:43;;;;;;;3.10;1.43;;;;;;;21.20;80.53;100036.31;4973674;28;20176;-73
2022/08/01 00:31:08;;;;;;;2.47;1.87;;;;;;;21.19;80.59;100041.72;4966952;28;20235;-73
2022/08/01 00:33:33;;;;;;;2.43;1.67;;;;;;;21.13;81.30;100035.31;4990008;28;20206;-73
2022/08/01 00:35:59;;;;;;;1.73;1.40;;;;;;;21.09;81.49;100026.13;4974481;28;20188;-72
2022/08/01 00:38:24;;;;;;;2.60;1.27;;;;;;;21.13;81.52;100032.69;4975233;28;20532;-73
2022/08/01 00:40:50;;;;;;;5.03;1.50;;;;;;;21.14;81.50;100030.91;4954337;28;20239;-73
2022/08/01 00:43:16;;;;;;;2.70;1.47;;;;;;;20.97;82.68;100028.16;4972820;28;20703;-73
2022/08/01 00:45:41;;;;;;;1.90;1.37;;;;;;;21.01;82.60;100031.28;4974652;28;20180;-73
2022/08/01 00:48:07;;;;;;;1.23;1.13;;;;;;;21.06;82.63;100034.28;4974124;28;20220;-72
2022/08/01 00:50:32;;;;;;;1.57;1.40;;;;;;;21.09;82.70;100034.78;4966004;28;20701;-73
2022/08/01 00:52:58;;;;;;;2.40;1.30;;;;;;;21.15;82.48;100041.22;4985387;28;20184;-73
2022/08/01 00:55:25;;;;;;;1.20;1.10;;;;;;;21.07;83.11;100038.53;4988440;28;20192;-73
2022/08/01 00:57:51;;;;;;;1.50;1.10;;;;;;;21.09;82.93;100037.41;4972988;28;20243;-72
2022/08/01 01:00:17;;;;;;;1.53;1.20;;;;;;;21.04;83.06;100031.00;4965468;28;20215;-73
2022/08/01 01:02:43;;;;;;;2.10;1.30;;;;;;;21.02;83.28;100032.94;4987893;28;20201;-73
2022/08/01 01:05:09;;;;;;;1.83;1.40;;;;;;;20.91;84.65;100042.69;4974280;28;20960;-73
2022/08/01 01:07:50;;;;;;;1.50;1.40;;;;;;;20.97;84.33;100043.84;4972813;28;20234;-72
2022/08/01 01:10:21;;;;;;;2.60;1.60;;;;;;;20.86;85.45;100044.91;4965238;28;20595;-73
2022/08/01 01:13:09;;;;;;;2.83;1.37;;;;;;;20.78;85.87;100035.22;4988919;28;20176;-72
2022/08/01 01:15:39;;;;;;;1.87;1.10;;;;;;;20.86;85.83;100046.72;4972591;28;20635;-73
2022/08/01 01:18:17;;;;;;;2.40;1.33;;;;;;;20.82;85.36;100043.59;4973854;28;20227;-73
2022/08/01 01:20:46;;;;;;;2.17;1.40;;;;;;;20.87;85.66;100048.38;4981849;28;20583;-73
2022/08/01 01:23:32;;;;;;;3.77;1.50;;;;;;;20.88;85.67;100050.00;4988592;28;20542;-73
2022/08/01 01:26:28;;;;;;;2.00;1.30;;;;;;;20.84;84.94;100048.66;4972675;28;20537;-72
2022/08/01 01:29:16;;;;;;;3.17;1.43;;;;;;;20.71;85.74;100051.63;4970587;28;20262;-73
2022/08/01 01:32:02;;;;;;;1.47;1.13;;;;;;;20.61;86.58;100046.50;4965963;28;20773;-73
2022/08/01 01:34:29;;;;;;;1.13;1.10;;;;;;;20.67;86.77;100052.91;4988340;28;20192;-73
2022/08/01 01:36:59;;;;;;;2.70;1.77;;;;;;;20.73;86.36;100057.56;4988589;28;20184;-73
2022/08/01 01:39:28;;;;;;;2.60;1.40;;;;;;;20.65;86.61;100047.81;4971414;28;20200;-73
2022/08/01 01:41:55;;;;;;;1.63;1.30;;;;;;;20.55;87.75;100053.13;4970411;28;20277;-73
2022/08/01 01:44:20;;;;;;;2.40;1.60;;;;;;;20.48;88.22;100050.31;4988769;28;20470;-72
2022/08/01 01:46:47;;;;;;;1.87;1.20;;;;;;;20.40;90.25;100057.25;4973608;28;20203;-73
2022/08/01 01:49:13;;;;;;;2.23;1.40;;;;;;;20.28;91.36;100057.47;4971727;28;20259;-73
2022/08/01 01:51:41;;;;;;;2.47;1.57;;;;;;;20.26;91.38;100061.19;4974280;28;20266;-73
2022/08/01 01:54:09;;;;;;;1.40;1.30;;;;;;;20.12;92.13;100063.34;4988283;28;20188;-73
2022/08/01 01:56:48;;;;;;;2.00;1.50;;;;;;;20.13;92.63;100061.53;4972086;28;20187;-72
2022/08/01 01:59:14;;;;;;;2.33;1.30;;;;;;;20.03;93.45;100068.63;4973826;28;20264;-72
2022/08/01 02:01:40;;;;;;;1.30;1.20;;;;;;;19.94;94.55;100065.09;4965381;28;20383;-73
2022/08/01 02:04:06;;;;;;;3.27;1.60;;;;;;;19.97;94.33;100065.63;4976703;28;20231;-73
2022/08/01 02:06:33;;;;;;;1.97;1.30;;;;;;;19.98;94.32;100064.66;4972847;28;20264;-73
2022/08/01 02:09:01;;;;;;;3.07;1.60;;;;;;;19.97;94.32;100062.16;4971288;28;20204;-72
2022/08/01 02:11:26;;;;;;;1.50;1.40;;;;;;;19.90;94.59;100061.94;4974138;28;20230;-72
2022/08/01 02:13:58;;;;;;;1.67;1.40;;;;;;;19.85;95.69;100064.16;4977770;28;20188;-73
2022/08/01 02:16:28;;;;;;;2.27;1.43;;;;;;;19.78;96.74;100063.06;4971506;28;20224;-73
2022/08/01 02:18:54;;;;;;;3.27;1.43;;;;;;;19.78;96.95;100065.69;4987389;28;20215;-72
2022/08/01 02:21:26;;;;;;;2.40;1.67;;;;;;;19.75;96.55;100060.75;4981365;28;20282;-72
2022/08/01 02:23:55;;;;;;;1.77;1.50;;;;;;;19.70;97.60;100068.19;4977573;28;20238;-72
2022/08/01 02:26:23;;;;;;;4.57;1.60;;;;;;;19.67;97.91;100064.91;4972905;28;20542;-72
2022/08/01 02:29:06;;;;;;;3.57;1.60;;;;;;;19.59;97.77;100070.00;4987339;28;20270;-72
2022/08/01 02:31:38;;;;;;;1.60;1.50;;;;;;;19.59;98.55;100067.41;4965097;28;20274;-72
2022/08/01 02:34:06;;;;;;;1.77;1.53;;;;;;;19.59;98.80;100066.59;4975668;28;20180;-72
2022/08/01 02:36:37;;;;;;;2.57;1.33;;;;;;;19.48;99.42;100060.56;4971517;28;20619;-73
2022/08/01 02:39:07;;;;;;;2.40;1.57;;;;;;;19.49;100.00;100064.00;4971165;28;20184;-73
2022/08/01 02:41:39;;;;;;;2.87;1.60;;;;;;;19.48;100.00;100051.94;4967588;28;20227;-72
2022/08/01 02:44:08;;;;;;;2.00;1.50;;;;;;;19.48;100.00;100062.38;4975813;28;20192;-72
2022/08/01 02:46:39;;;;;;;1.87;1.40;;;;;;;19.44;100.00;100058.41;4973075;28;20224;-72
2022/08/01 02:49:08;;;;;;;1.50;1.40;;;;;;;19.46;100.00;100062.53;4973385;28;20689;-72
2022/08/01 02:51:35;;;;;;;2.90;1.40;;;;;;;19.50;100.00;100058.66;4964877;28;20701;-72
2022/08/01 02:54:04;;;;;;;1.33;1.27;;;;;;;19.48;100.00;100051.94;4976213;28;20188;-72
2022/08/01 02:56:37;;;;;;;1.50;1.30;;;;;;;19.40;100.00;100054.41;4972865;28;20192;-72
2022/08/01 02:59:05;;;;;;;1.63;1.50;;;;;;;19.33;100.00;100049.78;4970740;28;20685;-73
2022/08/01 03:01:34;;;;;;;1.57;1.43;;;;;;;19.27;100.00;100049.53;4963519;28;20755;-72
2022/08/01 03:03:59;;;;;;;2.77;1.13;;;;;;;19.29;100.00;100045.81;4987025;28;20288;-72
2022/08/01 03:06:26;;;;;;;1.67;1.27;;;;;;;19.28;100.00;100045.97;4987699;28;20214;-72
2022/08/01 03:08:53;;;;;;;1.40;1.30;;;;;;;19.27;100.00;100057.34;4958893;28;20725;-73
2022/08/01 03:11:20;;;;;;;1.83;1.30;;;;;;;19.18;100.00;100049.41;4964839;28;20231;-73
2022/08/01 03:13:48;;;;;;;1.47;1.37;;;;;;;19.25;100.00;100054.91;4970987;28;20226;-72
2022/08/01 03:16:15;;;;;;;2.20;1.43;;;;;;;19.26;100.00;100056.50;4971227;28;20698;-73
2022/08/01 03:18:44;;;;;;;3.27;1.20;;;;;;;19.29;100.00;100058.03;4988611;28;20550;-72
2022/08/01 03:21:11;;;;;;;3.63;1.40;;;;;;;19.21;100.00;100058.72;4968046;28;20322;-73
2022/08/01 03:23:38;;;;;;;1.47;1.37;;;;;;;19.24;100.00;100055.00;4990761;28;20180;-72
2022/08/01 03:26:04;;;;;;;1.97;1.30;;;;;;;19.26;100.00;100055.69;4975861;28;20234;-72
2022/08/01 03:28:30;;;;;;;1.80;1.37;;;;;;;19.18;100.00;100054.63;4974650;28;20597;-71
2022/08/01 03:30:57;;;;;;;2.27;1.53;;;;;;;19.19;100.00;100061.47;4947580;28;20223;-73
2022/08/01 03:33:23;;;;;;;1.63;1.23;;;;;;;19.11;100.00;100066.56;4983961;28;20635;-72
2022/08/01 03:35:53;;;;;;;2.20;1.53;;;;;;;19.05;100.00;100059.31;4974343;28;20191;-73
2022/08/01 03:38:23;;;;;;;5.97;1.53;;;;;;;18.95;100.00;100074.16;4974548;28;20259;-72
2022/08/01 03:41:22;;;;;;;2.20;1.77;;;;;;;18.82;100.00;100077.00;4966862;28;20231;-73
2022/08/01 03:43:54;;;;;;;1.83;1.33;;;;;;;18.86;100.00;100079.19;4956940;28;20543;-73
2022/08/01 03:46:36;;;;;;;2.13;1.80;;;;;;;18.81;100.00;100077.97;4986736;28;20190;-73
2022/08/01 03:49:09;;;;;;;1.40;1.30;;;;;;;18.89;100.00;100072.91;4974928;28;20267;-72
2022/08/01 03:51:37;;;;;;;1.77;1.30;;;;;;;18.88;100.00;100079.06;4967286;28;20223;-72
2022/08/01 03:54:04;;;;;;;2.57;1.47;;;;;;;18.93;100.00;100073.44;4990121;28;20203;-72
2022/08/01 03:56:32;;;;;;;2.43;1.60;;;;;;;18.89;100.00;100072.91;4975387;28;20199;-72
2022/08/01 03:58:59;;;;;;;1.60;1.50;;;;;;;18.89;100.00;100072.91;4974933;28;20230;-72
2022/08/01 04:01:25;;;;;;;3.87;1.50;;;;;;;18.80;100.00;100073.72;4982985;28;20242;-73
2022/08/01 04:03:51;;;;;;;1.60;1.47;;;;;;;18.80;100.00;100071.09;4979644;28;20187;-72
2022/08/01 04:06:17;;;;;;;2.23;1.60;;;;;;;18.76;100.00;100067.94;4974989;28;20350;-72
2022/08/01 04:08:42;;;;;;;2.67;1.90;;;;;;;18.80;100.00;100071.09;4974301;28;20214;-72
2022/08/01 04:11:09;;;;;;;3.03;1.63;;;;;;;18.83;100.00;100070.84;4967056;28;20223;-72
2022/08/01 04:13:34;;;;;;;3.50;1.50;;;;;;;18.83;100.00;100076.88;4989698;28;20726;-73
2022/08/01 04:15:59;;;;;;;1.93;1.83;;;;;;;18.85;100.00;100088.00;4973239;28;20191;-72
2022/08/01 04:18:25;;;;;;;2.97;1.67;;;;;;;18.89;100.00;100083.31;4974447;28;20231;-72
2022/08/01 04:20:50;;;;;;;2.37;2.10;;;;;;;18.91;100.00;100084.03;4970802;28;20246;-73
2022/08/01 04:23:18;;;;;;;4.50;1.70;;;;;;;18.88;100.00;100084.28;4989627;28;20652;-72
2022/08/01 04:25:45;;;;;;;4.87;1.90;;;;;;;18.99;100.00;100085.94;4973574;28;20177;-73
2022/08/01 04:28:16;;;;;;;1.70;1.40;;;;;;;18.99;100.00;100091.13;4974628;28;20204;-73
2022/08/01 04:30:43;;;;;;;2.23;1.70;;;;;;;19.08;100.00;100092.94;4965919;28;20223;-72
2022/08/01 04:33:11;;;;;;;2.27;1.60;;;;;;;19.21;100.00;100087.41;4989543;28;20204;-72
2022/08/01 04:35:40;;;;;;;2.40;1.90;;;;;;;19.25;100.00;100096.63;4973126;28;20187;-72
2022/08/01 04:38:07;;;;;;;1.80;1.70;;;;;;;19.12;100.00;100104.72;4974373;28;20172;-72
2022/08/01 04:40:35;;;;;;;3.47;1.70;;;;;;;19.26;100.00;100106.06;4957450;28;20577;-73
2022/08/01 04:43:01;;;;;;;1.80;1.70;;;;;;;19.32;100.00;100104.69;4982760;28;20172;-72
2022/08/01 04:45:28;;;;;;;3.00;1.43;;;;;;;19.48;100.00;100111.94;4974344;28;20578;-72
2022/08/01 04:47:54;;;;;;;2.40;1.30;;;;;;;19.68;100.00;100115.28;4974227;28;20207;-72
2022/08/01 04:50:21;;;;;;;2.50;1.63;;;;;;;19.76;100.00;100110.19;4966799;28;20566;-73
2022/08/01 04:52:47;;;;;;;2.73;1.43;;;;;;;19.79;100.00;100111.69;4989131;28;20180;-73
2022/08/01 04:55:12;;;;;;;2.80;1.53;;;;;;;19.84;100.00;100112.13;4972736;28;20188;-72
2022/08/01 04:57:42;;;;;;;1.80;1.53;;;;;;;19.95;100.00;100111.91;4972761;28;20183;-72
2022/08/01 05:00:08;;;;;;;2.73;1.53;;;;;;;20.08;99.16;100116.81;4978983;28;20262;-73
2022/08/01 05:02:34;;;;;;;2.43;2.20;;;;;;;20.10;99.10;100119.28;4988451;28;20658;-72
2022/08/01 05:04:59;;;;;;;2.27;1.50;;;;;;;20.03;99.26;100118.22;4974732;28;20188;-72
2022/08/01 05:07:25;;;;;;;4.40;1.77;;;;;;;20.09;99.33;100128.09;4980782;28;20291;-72
2022/08/01 05:09:50;;;;;;;2.77;1.43;;;;;;;20.20;98.12;100122.66;4967994;28;20263;-72
2022/08/01 05:12:16;;;;;;;2.27;2.07;;;;;;;20.40;96.54;100128.59;4979877;28;20306;-72
2022/08/01 05:14:41;;;;;;;2.03;1.80;;;;;;;20.51;95.71;100124.94;4972721;28;20184;-72
2022/08/01 05:17:09;;;;;;;1.73;1.53;;;;;;;20.48;93.88;100120.84;4977599;28;20223;-72
2022/08/01 05:19:38;;;;;;;3.03;1.60;;;;;;;20.51;94.44;100122.34;4991450;28;20175;-72
2022/08/01 05:22:08;;;;;;;2.30;1.40;;;;;;;20.63;92.75;100120.34;4965780;28;20250;-72
2022/08/01 05:24:35;;;;;;;1.53;1.23;;;;;;;20.78;92.46;100128.50;4974005;28;20239;-73
2022/08/01 05:27:01;;;;;;;1.77;1.60;;;;;;;20.93;90.64;100127.00;4988531;28;20195;-73
2022/08/01 05:29:27;;;;;;;4.63;1.50;;;;;;;21.12;89.24;100126.03;4972921;28;20195;-73
2022/08/01 05:31:53;;;;;;;2.70;1.40;;;;;;;21.26;88.06;100137.72;4977609;28;20689;-73
2022/08/01 05:34:20;;;;;;;1.63;1.43;;;;;;;21.43;86.05;100136.06;4988456;28;20184;-73
2022/08/01 05:36:45;;;;;;;3.37;1.53;;;;;;;21.54;84.94;100134.16;4973414;28;20694;-73
2022/08/01 05:39:11;;;;;;;2.90;1.63;;;;;;;21.93;83.67;100136.34;4972838;28;20187;-73
2022/08/01 05:41:36;;;;;;;1.20;1.00;;;;;;;21.99;81.28;100135.72;4961397;28;20226;-73
2022/08/01 05:44:05;;;;;;;3.73;1.70;;;;;;;22.01;80.70;100141.59;4972006;28;20643;-73
2022/08/01 05:46:31;;;;;;;2.13;1.37;;;;;;;22.06;80.56;100136.72;4971906;28;20238;-73
2022/08/01 05:48:57;;;;;;;2.67;1.70;;;;;;;22.14;79.66;100135.09;4987903;28;20576;-73
2022/08/01 05:51:23;;;;;;;2.13;1.40;;;;;;;22.46;77.70;100142.28;4973822;28;20369;-73
2022/08/01 05:53:48;;;;;;;1.93;1.37;;;;;;;22.53;77.96;100143.28;4972123;28;20262;-74
2022/08/01 05:56:13;;;;;;;2.73;1.30;;;;;;;22.66;76.25;100140.19;4971762;28;20188;-74
2022/08/01 05:58:38;;;;;;;1.57;1.13;;;;;;;22.90;75.37;100138.56;4955012;28;20185;-74
2022/08/01 06:01:04;;;;;;;1.97;1.23;;;;;;;22.88;74.97;100141.38;4957782;28;20230;-74
2022/08/01 06:03:31;;;;;;;1.40;1.30;;;;;;;23.29;73.36;100137.91;4980573;28;20219;-74
2022/08/01 06:05:56;;;;;;;2.13;1.30;;;;;;;23.31;72.61;100143.84;4971840;28;20703;-73
2022/08/01 06:08:22;;;;;;;2.33;1.10;;;;;;;23.56;71.53;100146.41;4987757;28;20227;-73
2022/08/01 06:10:47;;;;;;;3.17;1.20;;;;;;;24.11;67.37;100147.44;4968611;28;20528;-75
2022/08/01 06:13:13;;;;;;;1.90;1.60;;;;;;;24.38;66.50;100141.88;4982614;28;20176;-74
2022/08/01 06:15:38;;;;;;;2.97;1.60;;;;;;;24.43;65.34;100150.06;4972061;28;20180;-74
2022/08/01 06:18:04;;;;;;;8.63;1.50;;;;;;;24.67;63.59;100149.09;4973190;28;20580;-74
2022/08/01 06:20:30;;;;;;;1.70;1.20;;;;;;;25.02;61.71;100160.03;4960940;28;20234;-73
2022/08/01 06:22:55;;;;;;;1.40;1.23;;;;;;;24.99;61.79;100160.38;4961983;28;20179;-73
2022/08/01 06:25:20;;;;;;;1.33;1.23;;;;;;;25.09;60.76;100162.75;4971654;28;20555;-74
2022/08/01 06:27:46;;;;;;;3.43;1.00;;;;;;;25.42;59.00;100159.88;4973216;28;20547;-74
2022/08/01 06:30:11;;;;;;;2.23;1.30;;;;;;;25.44;59.56;100158.69;4963327;28;20548;-73
2022/08/01 06:32:37;;;;;;;2.60;1.27;;;;;;;25.65;57.66;100162.44;4986820;28;20184;-74
2022/08/01 06:35:03;;;;;;;1.67;1.10;;;;;;;25.89;55.97;100165.78;4973091;28;20212;-74
2022/08/01 06:37:30;;;;;;;1.50;0.95;;;;;;;26.39;54.50;100160.75;4973057;28;20195;-74
2022/08/01 06:40:00;;;;;;;1.75;1.00;;;;;;;26.47;54.02;100168.53;4971850;28;20183;-73
2022/08/01 06:42:25;;;;;;;4.65;1.45;;;;;;;26.74;51.76;100168.81;4978743;28;20262;-74
2022/08/01 06:44:50;;;;;;;4.35;1.23;;;;;;;27.03;51.90;100170.50;4971602;28;20180;-73
2022/08/01 06:47:15;;;;;;;3.30;1.33;;;;;;;26.97;51.87;100171.28;4972860;28;20196;-73
2022/08/01 06:49:41;;;;;;;1.23;0.98;;;;;;;27.01;50.38;100177.81;4972266;28;20662;-73
2022/08/01 06:52:06;;;;;;;1.30;1.20;;;;;;;28.07;47.38;100177.91;4978276;28;20310;-75
2022/08/01 06:54:31;;;;;;;3.17;1.27;;;;;;;29.52;42.12;100179.38;4973773;28;20639;-74
2022/08/01 06:56:57;;;;;;;1.83;1.30;;;;;;;31.65;37.26;100183.66;4963002;28;20217;-74
2022/08/01 06:59:22;;;;;;;0.90;0.90;;;;;;;32.98;35.29;100175.75;4987506;28;20211;-75
2022/08/01 07:01:47;;;;;;;3.30;1.13;;;;;;;34.96;31.67;100184.69;4972810;28;20219;-74
2022/08/01 07:04:12;;;;;;;1.30;1.20;;;;;;;33.92;32.35;100186.59;4978767;28;20176;-75
2022/08/01 07:06:38;;;;;;;4.25;0.98;;;;;;;33.14;33.46;100187.56;4976135;28;20208;-75
2022/08/01 07:09:03;;;;;;;1.90;0.98;;;;;;;32.96;34.07;100185.00;4975932;28;20670;-74
2022/08/01 07:11:28;;;;;;;1.30;1.20;;;;;;;32.60;34.88;100181.41;4977360;28;20231;-74
2022/08/01 07:13:54;;;;;;;1.30;1.10;;;;;;;32.38;35.06;100184.63;4974824;28;20180;-74
2022/08/01 07:16:19;;;;;;;1.17;1.08;;;;;;;30.79;37.63;100176.19;4974931;28;20248;-74
2022/08/01 07:18:45;;;;;;;1.70;1.10;;;;;;;29.55;40.52;100171.00;4980831;28;20635;-73
2022/08/01 07:21:11;;;;;;;1.33;1.10;;;;;;;28.49;44.03;100168.06;4974493;28;20246;-74
2022/08/01 07:23:36;;;;;;;1.13;1.02;;;;;;;27.43;47.79;100167.38;4974556;28;20218;-73
2022/08/01 07:26:03;;;;;;;1.42;1.08;;;;;;;27.45;48.79;100175.09;4976204;28;20661;-73
2022/08/01 07:28:29;;;;;;;2.58;1.70;;;;;;;27.76;47.00;100169.44;4974837;28;20212;-74
2022/08/01 07:30:55;;;;;;;1.70;1.60;;;;;;;27.76;48.09;100168.59;4952387;28;20227;-74
2022/08/01 07:33:22;;;;;;;2.42;1.30;;;;;;;27.68;48.18;100162.44;4984334;28;20184;-74
2022/08/01 07:35:47;;;;;;;1.50;1.40;;;;;;;27.42;49.65;100168.41;4974311;28;20188;-74
2022/08/01 07:38:13;;;;;;;2.97;1.38;;;;;;;27.15;50.71;100164.72;4975287;28;20694;-74
2022/08/01 07:40:39;;;;;;;1.67;1.40;;;;;;;27.08;51.06;100162.03;4955915;28;20688;-74
2022/08/01 07:43:04;;;;;;;2.10;1.80;;;;;;;27.41;49.66;100166.75;4972077;28;20239;-74
2022/08/01 07:45:30;;;;;;;2.63;1.50;;;;;;;27.02;51.34;100171.53;4974288;28;20272;-75
2022/08/01 07:47:55;;;;;;;1.48;1.38;;;;;;;27.04;51.87;100168.69;4975406;28;20239;-74
2022/08/01 07:50:21;;;;;;;2.90;1.80;;;;;;;27.29;51.01;100170.91;4966574;28;20267;-74
2022/08/01 07:52:46;;;;;;;3.88;1.55;;;;;;;27.47;49.71;100168.63;4990082;28;20176;-74
2022/08/01 07:55:12;;;;;;;2.95;1.40;;;;;;;27.58;49.50;100164.63;4975034;28;20195;-75
2022/08/01 07:57:37;;;;;;;1.77;1.50;;;;;;;26.94;50.63;100160.28;4990447;28;20214;-74
2022/08/01 08:00:08;;;;;;;1.58;1.48;;;;;;;26.95;51.61;100167.19;4974810;28;20623;-72
2022/08/01 08:02:33;;;;;;;1.67;1.58;;;;;;;27.30;51.29;100169.91;4979954;28;20220;-74
2022/08/01 08:04:58;;;;;;;2.10;1.77;;;;;;;27.12;51.81;100165.13;4973355;28;20187;-74
2022/08/01 08:07:24;;;;;;;3.60;2.10;;;;;;;26.94;51.66;100165.56;4973555;28;20196;-74
2022/08/01 08:09:49;;;;;;;3.20;1.67;;;;;;;26.36;54.52;100169.03;4974662;28;20794;-75
2022/08/01 08:12:14;;;;;;;2.00;1.80;;;;;;;25.49;57.15;100167.84;4965757;28;20281;-76
2022/08/01 08:14:40;;;;;;;5.78;1.88;;;;;;;25.58;58.66;100172.88;4975252;28;20303;-74
2022/08/01 08:17:06;;;;;;;3.88;1.73;;;;;;;26.73;53.10;100168.00;4974930;28;20232;-74
2022/08/01 08:19:33;;;;;;;2.20;1.42;;;;;;;27.26;50.44;100169.47;4974483;28;20188;-75
2022/08/01 08:22:00;;;;;;;1.60;1.30;;;;;;;28.13;48.54;100174.47;4966564;28;20242;-76
2022/08/01 08:24:26;;;;;;;2.03;1.45;;;;;;;30.48;42.02;100164.53;4975477;28;20191;-74
2022/08/01 08:26:57;;;;;;;2.03;1.27;;;;;;;32.74;37.22;100172.19;4974798;28;20721;-74
2022/08/01 08:29:22;;;;;;;1.60;1.50;;;;;;;32.45;35.83;100192.50;4974432;28;20195;-75
2022/08/01 08:31:49;;;;;;;1.50;1.40;;;;;;;32.11;36.50;100182.28;4977790;28;20612;-75
2022/08/01 08:34:15;;;;;;;3.05;1.60;;;;;;;30.70;38.63;100185.44;4975864;28;20267;-74
2022/08/01 08:36:40;;;;;;;4.07;1.50;;;;;;;30.18;40.43;100186.31;4974428;28;20751;-74
2022/08/01 08:39:06;;;;;;;1.80;1.65;;;;;;;31.21;38.79;100184.44;4974136;28;20674;-74
2022/08/01 08:41:35;;;;;;;1.60;1.48;;;;;;;30.96;38.63;100181.78;4953108;28;20231;-74
2022/08/01 08:44:02;;;;;;;1.80;1.50;;;;;;;30.93;38.36;100176.91;4978079;28;20191;-74
2022/08/01 08:46:28;;;;;;;3.15;1.50;;;;;;;30.79;39.04;100183.31;4974132;28;20223;-74
2022/08/01 08:48:55;;;;;;;4.78;1.70;;;;;;;29.99;39.87;100181.91;4973849;28;20196;-73
2022/08/01 08:51:20;;;;;;;2.05;1.85;;;;;;;30.05;40.62;100178.41;4966255;28;20243;-74
2022/08/01 08:53:47;;;;;;;2.38;1.98;;;;;;;30.22;40.18;100176.91;4989297;28;20250;-73
2022/08/01 08:56:13;;;;;;;2.15;1.95;;;;;;;29.84;41.85;100182.94;4974023;28;20195;-72
2022/08/01 08:58:43;;;;;;;3.03;1.67;;;;;;;29.23;42.26;100171.63;4960313;28;20199;-75
2022/08/01 09:01:09;;;;;;;4.57;2.03;;;;;;;29.02;44.14;100174.50;4966600;28;20648;-75
2022/08/01 09:03:35;;;;;;;2.10;2.00;;;;;;;29.04;43.36;100169.78;4972551;28;20655;-74
2022/08/01 09:06:01;;;;;;;2.88;2.22;;;;;;;29.01;44.27;100172.88;4974063;28;20272;-74
2022/08/01 09:08:26;;;;;;;2.30;1.92;;;;;;;28.27;45.81;100168.25;4972406;28;20300;-74
2022/08/01 09:10:52;;;;;;;4.53;2.35;;;;;;;27.93;47.22;100174.38;4965739;28;20318;-73
2022/08/01 09:13:18;;;;;;;2.03;1.92;;;;;;;27.80;47.45;100173.31;4988534;28;20195;-74
2022/08/01 09:15:46;;;;;;;2.33;1.98;;;;;;;27.69;47.90;100168.56;4972130;28;20543;-74
2022/08/01 09:18:35;;;;;;;2.20;1.83;;;;;;;27.62;48.15;100171.16;4972214;28;20219;-74
2022/08/01 09:21:09;;;;;;;2.45;2.17;;;;;;;27.57;48.46;100165.63;4951270;28;20319;-74
2022/08/01 09:23:39;;;;;;;2.58;2.03;;;;;;;27.05;51.25;100179.06;4975627;28;20183;-73
2022/08/01 09:26:06;;;;;;;2.45;2.25;;;;;;;27.18;50.89;100175.72;4973645;28;20176;-74
2022/08/01 09:28:31;;;;;;;2.38;2.17;;;;;;;28.45;47.66;100172.16;4973170;28;20208;-72
2022/08/01 09:30:57;;;;;;;2.20;2.00;;;;;;;29.22;43.72;100177.13;4970629;28;20693;-74
2022/08/01 09:33:22;;;;;;;3.17;2.08;;;;;;;29.99;41.14;100173.97;4972351;28;20180;-74
2022/08/01 09:35:57;;;;;;;2.50;1.90;;;;;;;29.77;40.20;100172.38;4973272;28;20188;-74
2022/08/01 09:38:26;;;;;;;1.70;1.60;;;;;;;30.65;39.00;100177.31;4972270;28;20192;-74
2022/08/01 09:40:53;;;;;;;3.97;1.70;;;;;;;31.60;35.82;100184.28;4956651;28;20361;-74
2022/08/01 09:43:20;;;;;;;3.92;1.73;;;;;;;32.21;35.28;100184.44;4971638;28;20184;-74
2022/08/01 09:45:46;;;;;;;3.40;1.90;;;;;;;31.78;36.81;100188.81;4973327;28;20226;-74
2022/08/01 09:48:12;;;;;;;2.90;1.70;;;;;;;31.13;37.92;100182.06;4971702;28;20714;-74
2022/08/01 09:50:50;;;;;;;2.35;1.55;;;;;;;31.85;36.17;100181.59;4981309;28;20219;-74
2022/08/01 09:53:16;;;;;;;2.00;1.77;;;;;;;31.13;37.23;100178.59;4971959;28;20180;-74
2022/08/01 09:55:42;;;;;;;1.90;1.52;;;;;;;31.24;37.17;100180.53;4987951;28;20243;-73
2022/08/01 09:58:08;;;;;;;3.47;1.73;;;;;;;33.13;34.53;100177.94;4971685;28;20188;-73
2022/08/01 10:00:34;;;;;;;1.58;1.48;;;;;;;32.96;34.11;100171.69;4967158;28;20289;-74
2022/08/01 10:03:21;;;;;;;4.43;2.00;;;;;;;32.67;34.20;100169.66;4984160;28;20184;-74
2022/08/01 10:05:47;;;;;;;1.85;1.70;;;;;;;33.51;32.64;100178.53;4962568;28;20226;-74
2022/08/01 10:08:13;;;;;;;2.80;1.60;;;;;;;33.41;33.06;100186.31;4972479;28;20215;-74
2022/08/01 10:10:38;;;;;;;1.40;1.25;;;;;;;32.91;33.31;100172.38;4965608;28;20235;-74
2022/08/01 10:13:04;;;;;;;2.30;1.67;;;;;;;31.91;34.25;100184.38;4983704;28;20207;-74
2022/08/01 10:15:30;;;;;;;1.55;1.30;;;;;;;31.22;36.19;100174.63;4973019;28;20259;-74
2022/08/01 10:17:57;;;;;;;8.27;2.10;;;;;;;30.39;37.72;100171.94;4972894;28;20318;-74
2022/08/01 10:20:27;;;;;;;2.95;1.40;;;;;;;31.20;35.20;100163.44;4963870;28;20190;-74
2022/08/01 10:22:54;;;;;;;1.40;1.30;;;;;;;32.88;32.99;100159.50;4987722;28;20188;-74
2022/08/01 10:25:20;;;;;;;1.45;1.35;;;;;;;34.94;30.14;100164.63;4972874;28;20184;-75
2022/08/01 10:27:48;;;;;;;1.48;1.35;;;;;;;36.54;26.89;100167.34;4989002;28;20203;-74
2022/08/01 10:30:14;;;;;;;1.50;1.40;;;;;;;37.01;25.64;100173.09;4966804;28;20222;-75
2022/08/01 10:32:42;;;;;;;1.40;1.30;;;;;;;37.46;25.91;100167.19;4991780;28;20682;-75
2022/08/01 10:35:08;;;;;;;2.08;1.40;;;;;;;38.23;25.18;100169.28;4976757;28;20184;-75
2022/08/01 10:37:35;;;;;;;3.13;1.33;;;;;;;38.86;23.64;100164.75;4975285;28;20712;-75
2022/08/01 10:40:01;;;;;;;1.60;1.50;;;;;;;37.92;23.65;100160.38;4968279;28;20192;-75
2022/08/01 10:42:27;;;;;;;1.83;1.27;;;;;;;37.70;25.11;100153.31;4974608;28;20235;-75
2022/08/01 10:44:54;;;;;;;2.80;1.50;;;;;;;38.70;24.28;100145.94;4976635;28;20183;-76
2022/08/01 10:47:37;;;;;;;1.60;1.42;;;;;;;38.35;23.69;100141.38;4976578;28;20234;-75
2022/08/01 10:50:24;;;;;;;1.80;1.20;;;;;;;38.92;22.54;100149.44;4976079;28;20187;-74
2022/08/01 10:53:16;;;;;;;4.13;1.60;;;;;;;36.57;24.49;100142.75;4965545;28;20244;-74
2022/08/01 10:55:56;;;;;;;1.92;1.38;;;;;;;35.01;26.68;100141.22;4966389;28;20178;-74
2022/08/01 10:58:32;;;;;;;3.47;1.60;;;;;;;33.52;29.03;100128.69;4975157;28;20202;-74
2022/08/01 11:01:16;;;;;;;1.92;1.50;;;;;;;33.06;31.71;100125.78;4964266;28;20258;-75
2022/08/01 11:03:44;;;;;;;2.15;1.80;;;;;;;33.13;30.23;100118.50;4991102;28;20176;-74
2022/08/01 11:06:17;;;;;;;2.08;1.70;;;;;;;32.82;32.09;100113.31;4975891;28;20192;-74
2022/08/01 11:08:50;;;;;;;1.92;1.58;;;;;;;32.64;31.75;100113.38;4974037;28;20760;-74
2022/08/01 11:11:16;;;;;;;1.83;1.73;;;;;;;32.22;32.86;100111.53;4975841;28;20314;-74
2022/08/01 11:14:15;;;;;;;2.40;1.63;;;;;;;32.10;33.66;100108.84;4974616;28;20188;-74
2022/08/01 11:16:40;;;;;;;1.75;1.65;;;;;;;31.62;33.01;100109.59;4978577;28;20656;-74
2022/08/01 11:19:10;;;;;;;1.80;1.70;;;;;;;31.57;33.75;100112.97;4978726;28;20677;-74
2022/08/01 11:21:54;;;;;;;1.88;1.77;;;;;;;31.22;33.65;100119.66;4977917;28;20692;-73
2022/08/01 11:24:48;;;;;;;1.75;1.63;;;;;;;31.15;33.96;100121.56;4959235;28;20188;-74
2022/08/01 11:27:29;;;;;;;2.15;1.98;;;;;;;30.99;33.71;100114.94;4972899;28;20224;-74
2022/08/01 11:30:10;;;;;;;2.58;2.10;;;;;;;29.56;37.46;100101.91;4990498;28;20271;-74